Pagina principale
METAR-TAF:

METAR-TAF

Aeroporti :

Aeroporto di Albenga

Albenga, Italia

latitudine: 44-03N, longitudine: 008-07E, altezza: 45 m

Osservazione

Il bollettino è stato emesso 25 minuti fa, alle 09:50 UTC
Vento 9 kt da nord/nord-est con raffiche fino a 22 kt
Temperature 14°C
Umidità 38%
Pressione 1013 hPa
Visibilità 10 km o più
Nubi sparse ad un'altezza di 6000 ft

METAR: LIMG 090950Z 02009G22KT 9999 SCT060 14/00 Q1013

Ora: 11:15 (10:15 UTC)


TAF: mancante

Osservazioni e previsioni meteorologiche di più di 4000 aeroporti (messaggi METAR e TAF).

Le stazioni disponibili sono rappresentate dai dischi gialli e rossi sulla carta.

Puntare il mouse per vedere il nome della stazione.

Clicca sopra per visualizzare le osservazioni e previsioni meteorologiche.

Per cambiare la mappa : fare clic sui pulsanti verdi con una croce nera per ingrandire, il pulsante verde con un trattino per diminuire, o sulla freccia verde per le mappe adiacenti.


METAR-TAF: